Sorrento, Louisiana
Current Conditions -  °F | °C
As of 2:15 PM on Friday 31 Oct 2014 (Local Time) from KL38 Reporting Station
Clear Clear  
Wind Chill: 74°   Ceiling: Unl
Heat Index: 74°   Visibility: 10mi
Dew Point: 42°   Wind: 13mph
Humidity: 32%   Direction: 340°NNW
Pressure: 30.03"   Gusts: 20mph
Location:  30.18°N, 90.86°W
Report Text: KL38 311915Z AUTO 34011G17KT 10SM CLR 24/06 A3003 RMK AO2 T02350058
Loading
Personal Weather Stations






























Interactive Weather Map
Tropical Storm Tracking
New forecast layout! Learn more

10-Day Weather Forecast

Advertisements
Track Severe Weather on mobile